Hlavní strana
METAR-TAF:

METAR-TAF

Letiště :

Letiště Fua'amotu

Tongatapu, Tonga

zeměpisná šířka: 21-14S, zeměpisná délka: 175-09W, výška: 38 m

Aktuální stav počasí

Zpráva byla vytvořena před 1 hodinou a 14 minutami, v 02:00 UTC
Východojihovýchodní vítr 12 kt s nárazy do 22 kt
Teplota 26°C
Vlhkost vzduchu 61%
Tlak 1015 hPa
Viditelnost 10 km a více
Skoro jasno ve výšce 2000 ft

METAR: NFTF 230200Z 11012G22KT 9999 FEW020 26/18 Q1015

Čas: 16:14 (03:14 UTC)

Předpověď počasí

Zpráva byla vytvořena před 4 hodinami a 6 minutami, v 23:08 UTC
Předpověď platná od 23 v 00 UTC do 23 v 24 UTC
Východojihovýchodní vítr 12 kt
Viditelnost 10 km a více
Skoro jasno ve výšce 1600 ft
Polojasno ve výšce 10000 ft
Pravděpodobnost 40% :
Dočasný
od 23 v 00 UTC do 23 v 06 UTC
Východojihovýchodní vítr 15 kt s nárazy do 25 kt

TAF: NFTF 222308Z 2300/2324 11012KT 9999 FEW016 SCT100 PROB40 TEMPO 2300/2306 11015G25KT

Stav a předpovědi počasí z více než 4 000 letišť (zprávy METAR a TAF).

Červené a žluté tečky na mapě představují dostupné meteorologické stanice.

Když kurzor umístíte na tečku, zobrazí se název stanice.

Pak kliknutím zobrazíte stav a předpověď počasí.

Chcete-li změnit mapu, kliknutím na zelené tlačítko se znaménkem +mapu přiblížíte, kliknutím na zelené tlačítko se znaménkem – mapu oddálíte a kliknutím na zelené šipky přejdete na sousední mapy.


METAR-TAF: